Main page
METAR-TAF:

METAR-TAF

Airports :

Le Havre – Octeville Airport

Le Havre, France

latitude: 49-31N, longitude: 000-04E, elevation: 100 m

Current weather observation

The report was made 35 minutes ago, at 01:30 UTC
Wind 9 kt from the Southwest
Temperature 9°C
Humidity 87%
Pressure 1023 hPa
Visibility 10 km or more
Overcast at a height of 1800 ft

METAR: LFOH 210130Z AUTO 23009KT 9999 OVC018 09/07 Q1023

Time: 03:05 (02:05 UTC)

Forecast

The report was made 7 hours and 33 minutes ago, at 18:32 UTC
Forecast valid from 20 at 18 UTC to 21 at 12 UTC
Wind 10 kt from the South/Southwest
Visibility 10 km or more
Scattered clouds at a height of 1600 ft
Probability 40% :
Temporary
from 20 at 18 UTC to 21 at 12 UTC
Visibility: 3000 m
Broken clouds at a height of 800 ft
rain, drizzle
Becoming
from 21 at 06 UTC to 21 at 08 UTC
Wind 18 kt from the South/Southwest with gusts up to 30 kt

TAF: LFOH 201832Z 2018/2112 21010KT 9999 SCT016 PROB40 TEMPO 2018/2112 3000 RADZ BKN008 BECMG 2106/2108 20018G30KT

Weather observations and forecasts of more than 4000 airports (METAR and TAF reports).

The available stations are represented by yellow and red dots on the map.

Hover mouse over dot to see the name of the station.

Then click to see weather observations and forecasts.

To change the map : click on the green buttons with a black cross to zoom in, on the green button with a dash to zoom out, or on the green arrows for adjacent maps.


METAR-TAF: